sensor_id;sensor_type;location;lat;lon;timestamp;pressure;altitude;pressure_sealevel;temperature;humidity
42601;BME280;28229;48.856;9.088;2023-12-20T00:01:21;97959.88;;;5.17;96.85
42601;BME280;28229;48.856;9.088;2023-12-20T00:03:47;97962.09;;;5.20;97.64
42601;BME280;28229;48.856;9.088;2023-12-20T00:06:14;97960.31;;;5.21;98.06
42601;BME280;28229;48.856;9.088;2023-12-20T00:08:40;97964.06;;;5.33;98.34
42601;BME280;28229;48.856;9.088;2023-12-20T00:11:06;97955.81;;;5.29;98.83
42601;BME280;28229;48.856;9.088;2023-12-20T00:13:32;97949.22;;;5.33;99.67
42601;BME280;28229;48.856;9.088;2023-12-20T00:15:58;97948.59;;;5.31;100.00
42601;BME280;28229;48.856;9.088;2023-12-20T00:18:24;97940.78;;;5.31;100.00
42601;BME280;28229;48.856;9.088;2023-12-20T00:20:50;97938.34;;;5.30;100.00
42601;BME280;28229;48.856;9.088;2023-12-20T00:23:16;97941.38;;;5.33;100.00
42601;BME280;28229;48.856;9.088;2023-12-20T00:25:42;97928.09;;;5.28;100.00
42601;BME280;28229;48.856;9.088;2023-12-20T00:28:09;97925.41;;;5.22;100.00
42601;BME280;28229;48.856;9.088;2023-12-20T00:30:35;97923.97;;;5.19;100.00
42601;BME280;28229;48.856;9.088;2023-12-20T00:33:02;97928.19;;;5.20;100.00
42601;BME280;28229;48.856;9.088;2023-12-20T00:35:28;97925.41;;;5.22;100.00
42601;BME280;28229;48.856;9.088;2023-12-20T00:37:54;97913.72;;;5.18;100.00
42601;BME280;28229;48.856;9.088;2023-12-20T00:40:22;97913.63;;;5.11;100.00
42601;BME280;28229;48.856;9.088;2023-12-20T00:42:48;97911.28;;;5.16;100.00
42601;BME280;28229;48.856;9.088;2023-12-20T00:45:14;97921.09;;;5.14;100.00
42601;BME280;28229;48.856;9.088;2023-12-20T00:47:41;97923.09;;;5.12;100.00
42601;BME280;28229;48.856;9.088;2023-12-20T00:50:07;97919.66;;;5.11;100.00
42601;BME280;28229;48.856;9.088;2023-12-20T00:52:33;97931.53;;;5.14;100.00
42601;BME280;28229;48.856;9.088;2023-12-20T00:54:59;97918.50;;;5.14;100.00
42601;BME280;28229;48.856;9.088;2023-12-20T00:57:26;97925.69;;;5.12;100.00
42601;BME280;28229;48.856;9.088;2023-12-20T00:59:52;97926.06;;;5.09;100.00
42601;BME280;28229;48.856;9.088;2023-12-20T01:02:18;97931.63;;;5.06;100.00
42601;BME280;28229;48.856;9.088;2023-12-20T01:04:45;97922.47;;;5.10;100.00
42601;BME280;28229;48.856;9.088;2023-12-20T01:07:12;97935.06;;;5.06;100.00
42601;BME280;28229;48.856;9.088;2023-12-20T01:09:38;97922.81;;;5.07;100.00
42601;BME280;28229;48.856;9.088;2023-12-20T01:12:04;97932.91;;;5.10;100.00
42601;BME280;28229;48.856;9.088;2023-12-20T01:14:31;97921.94;;;5.00;100.00
42601;BME280;28229;48.856;9.088;2023-12-20T01:16:57;97924.19;;;5.03;100.00
42601;BME280;28229;48.856;9.088;2023-12-20T01:19:24;97925.16;;;5.02;100.00
42601;BME280;28229;48.856;9.088;2023-12-20T01:21:50;97922.72;;;5.00;100.00
42601;BME280;28229;48.856;9.088;2023-12-20T01:24:17;97933.97;;;5.01;100.00
42601;BME280;28229;48.856;9.088;2023-12-20T01:26:43;97942.44;;;5.03;100.00
42601;BME280;28229;48.856;9.088;2023-12-20T01:29:09;97937.22;;;5.03;100.00
42601;BME280;28229;48.856;9.088;2023-12-20T01:31:35;97936.84;;;5.06;100.00
42601;BME280;28229;48.856;9.088;2023-12-20T01:34:01;97936.94;;;4.98;100.00
42601;BME280;28229;48.856;9.088;2023-12-20T01:36:28;97936.78;;;4.99;100.00
42601;BME280;28229;48.856;9.088;2023-12-20T01:38:54;97934.69;;;4.94;100.00
42601;BME280;28229;48.856;9.088;2023-12-20T01:41:20;97947.00;;;5.01;100.00
42601;BME280;28229;48.856;9.088;2023-12-20T01:43:47;97933.34;;;4.99;100.00
42601;BME280;28229;48.856;9.088;2023-12-20T01:46:13;97936.94;;;4.98;100.00
42601;BME280;28229;48.856;9.088;2023-12-20T01:48:41;97934.69;;;4.94;100.00
42601;BME280;28229;48.856;9.088;2023-12-20T01:51:07;97931.91;;;4.96;100.00
42601;BME280;28229;48.856;9.088;2023-12-20T01:53:34;97922.28;;;4.96;100.00
42601;BME280;28229;48.856;9.088;2023-12-20T01:56:01;97924.28;;;4.94;100.00
42601;BME280;28229;48.856;9.088;2023-12-20T01:58:27;97926.25;;;4.92;100.00
42601;BME280;28229;48.856;9.088;2023-12-20T02:00:54;97921.03;;;4.92;100.00
42601;BME280;28229;48.856;9.088;2023-12-20T02:03:22;97928.50;;;4.95;100.00
42601;BME280;28229;48.856;9.088;2023-12-20T02:05:49;97933.63;;;4.89;100.00
42601;BME280;28229;48.856;9.088;2023-12-20T02:08:16;97920.78;;;4.87;100.00
42601;BME280;28229;48.856;9.088;2023-12-20T02:10:42;97926.59;;;4.89;100.00
42601;BME280;28229;48.856;9.088;2023-12-20T02:13:09;97928.41;;;4.89;100.00
42601;BME280;28229;48.856;9.088;2023-12-20T02:15:35;97928.41;;;4.89;100.00
42601;BME280;28229;48.856;9.088;2023-12-20T02:18:04;97933.81;;;4.87;100.00
42601;BME280;28229;48.856;9.088;2023-12-20T02:20:30;97937.38;;;4.86;100.00
42601;BME280;28229;48.856;9.088;2023-12-20T02:22:56;97929.22;;;4.89;100.00
42601;BME280;28229;48.856;9.088;2023-12-20T02:25:22;97928.22;;;4.90;100.00
42601;BME280;28229;48.856;9.088;2023-12-20T02:27:49;97927.84;;;4.93;100.00
42601;BME280;28229;48.856;9.088;2023-12-20T02:30:15;97936.69;;;4.92;100.00
42601;BME280;28229;48.856;9.088;2023-12-20T02:32:41;97941.53;;;4.95;100.00
42601;BME280;28229;48.856;9.088;2023-12-20T02:35:07;97928.56;;;5.02;100.00
42601;BME280;28229;48.856;9.088;2023-12-20T02:37:34;97936.38;;;5.02;100.00
42601;BME280;28229;48.856;9.088;2023-12-20T02:40:00;97935.94;;;4.99;100.00
42601;BME280;28229;48.856;9.088;2023-12-20T02:42:26;97934.34;;;4.98;100.00
42601;BME280;28229;48.856;9.088;2023-12-20T02:44:52;97938.81;;;5.04;100.00
42601;BME280;28229;48.856;9.088;2023-12-20T02:47:18;97935.59;;;5.02;100.00
42601;BME280;28229;48.856;9.088;2023-12-20T02:49:44;97930.63;;;4.92;100.00
42601;BME280;28229;48.856;9.088;2023-12-20T02:52:10;97934.69;;;4.94;100.00
42601;BME280;28229;48.856;9.088;2023-12-20T02:54:37;97934.88;;;4.93;100.00
42601;BME280;28229;48.856;9.088;2023-12-20T02:57:03;97936.69;;;4.92;100.00
42601;BME280;28229;48.856;9.088;2023-12-20T02:59:29;97935.94;;;4.99;100.00
42601;BME280;28229;48.856;9.088;2023-12-20T03:01:55;97932.25;;;4.93;100.00
42601;BME280;28229;48.856;9.088;2023-12-20T03:04:21;97937.84;;;4.90;100.00
42601;BME280;28229;48.856;9.088;2023-12-20T03:06:47;97936.41;;;4.87;100.00
42601;BME280;28229;48.856;9.088;2023-12-20T03:09:14;97930.56;;;4.85;100.00
42601;BME280;28229;48.856;9.088;2023-12-20T03:11:40;97931.91;;;4.81;100.00
42601;BME280;28229;48.856;9.088;2023-12-20T03:14:06;97935.69;;;4.79;100.00
42601;BME280;28229;48.856;9.088;2023-12-20T03:16:32;97942.09;;;4.76;100.00
42601;BME280;28229;48.856;9.088;2023-12-20T03:18:59;97951.69;;;4.75;100.00
42601;BME280;28229;48.856;9.088;2023-12-20T03:21:25;97947.28;;;4.76;100.00
42601;BME280;28229;48.856;9.088;2023-12-20T03:23:51;97949.53;;;4.79;100.00
42601;BME280;28229;48.856;9.088;2023-12-20T03:26:17;97950.94;;;4.67;100.00
42601;BME280;28229;48.856;9.088;2023-12-20T03:28:43;97954.84;;;4.71;100.00
42601;BME280;28229;48.856;9.088;2023-12-20T03:31:10;97954.22;;;4.69;100.00
42601;BME280;28229;48.856;9.088;2023-12-20T03:33:37;97962.03;;;4.69;100.00
42601;BME280;28229;48.856;9.088;2023-12-20T03:36:03;97963.97;;;4.67;100.00
42601;BME280;28229;48.856;9.088;2023-12-20T03:38:29;97956.53;;;4.64;100.00
42601;BME280;28229;48.856;9.088;2023-12-20T03:40:55;97960.41;;;4.68;100.00
42601;BME280;28229;48.856;9.088;2023-12-20T03:43:21;97957.50;;;4.63;100.00
42601;BME280;28229;48.856;9.088;2023-12-20T03:45:47;97959.50;;;4.61;100.00
42601;BME280;28229;48.856;9.088;2023-12-20T03:48:13;97965.41;;;4.54;100.00
42601;BME280;28229;48.856;9.088;2023-12-20T03:50:39;97970.16;;;4.51;100.00
42601;BME280;28229;48.856;9.088;2023-12-20T03:53:05;97961.47;;;4.58;100.00
42601;BME280;28229;48.856;9.088;2023-12-20T03:55:32;97967.03;;;4.55;100.00
42601;BME280;28229;48.856;9.088;2023-12-20T03:57:58;97967.75;;;4.49;100.00
42601;BME280;28229;48.856;9.088;2023-12-20T04:00:24;97958.94;;;4.50;100.00
42601;BME280;28229;48.856;9.088;2023-12-20T04:02:50;97966.75;;;4.50;100.00
42601;BME280;28229;48.856;9.088;2023-12-20T04:05:16;97959.94;;;4.49;100.00
42601;BME280;28229;48.856;9.088;2023-12-20T04:07:42;97968.66;;;4.56;100.00
42601;BME280;28229;48.856;9.088;2023-12-20T04:10:09;97963.34;;;4.50;100.00
42601;BME280;28229;48.856;9.088;2023-12-20T04:12:35;97961.53;;;4.50;100.00
42601;BME280;28229;48.856;9.088;2023-12-20T04:15:02;97962.53;;;4.49;100.00
42601;BME280;28229;48.856;9.088;2023-12-20T04:17:35;97966.13;;;4.48;100.00
42601;BME280;28229;48.856;9.088;2023-12-20T04:20:02;97972.69;;;4.44;100.00
42601;BME280;28229;48.856;9.088;2023-12-20T04:22:28;97976.16;;;4.36;100.00
42601;BME280;28229;48.856;9.088;2023-12-20T04:24:54;97972.41;;;4.39;100.00
42601;BME280;28229;48.856;9.088;2023-12-20T04:27:20;97973.38;;;4.38;100.00
42601;BME280;28229;48.856;9.088;2023-12-20T04:29:46;97980.22;;;4.39;100.00
42601;BME280;28229;48.856;9.088;2023-12-20T04:32:13;97972.06;;;4.42;100.00
42601;BME280;28229;48.856;9.088;2023-12-20T04:34:39;97986.50;;;4.45;100.00
42601;BME280;28229;48.856;9.088;2023-12-20T04:37:05;97981.31;;;4.45;100.00
42601;BME280;28229;48.856;9.088;2023-12-20T04:39:31;97987.47;;;4.44;100.00
42601;BME280;28229;48.856;9.088;2023-12-20T04:41:57;97993.25;;;4.39;100.00
42601;BME280;28229;48.856;9.088;2023-12-20T04:44:23;97993.25;;;4.39;100.00
42601;BME280;28229;48.856;9.088;2023-12-20T04:46:49;97990.63;;;4.39;100.00
42601;BME280;28229;48.856;9.088;2023-12-20T04:49:16;97991.25;;;4.41;100.00
42601;BME280;28229;48.856;9.088;2023-12-20T04:51:42;97997.72;;;4.45;100.00
42601;BME280;28229;48.856;9.088;2023-12-20T04:54:08;97992.06;;;4.42;100.00
42601;BME280;28229;48.856;9.088;2023-12-20T04:56:35;98008.06;;;4.38;100.00
42601;BME280;28229;48.856;9.088;2023-12-20T04:59:01;98013.34;;;4.45;100.00
42601;BME280;28229;48.856;9.088;2023-12-20T05:01:27;98014.66;;;4.49;100.00
42601;BME280;28229;48.856;9.088;2023-12-20T05:03:53;98005.91;;;4.42;100.00
42601;BME280;28229;48.856;9.088;2023-12-20T05:06:19;98012.38;;;4.46;100.00
42601;BME280;28229;48.856;9.088;2023-12-20T05:08:45;98020.03;;;4.48;100.00
42601;BME280;28229;48.856;9.088;2023-12-20T05:11:12;98016.25;;;4.50;100.00
42601;BME280;28229;48.856;9.088;2023-12-20T05:13:40;98017.88;;;4.51;100.00
42601;BME280;28229;48.856;9.088;2023-12-20T05:16:06;98017.88;;;4.51;100.00
42601;BME280;28229;48.856;9.088;2023-12-20T05:18:32;98029.56;;;4.55;100.00
42601;BME280;28229;48.856;9.088;2023-12-20T05:20:58;98028.59;;;4.56;100.00
42601;BME280;28229;48.856;9.088;2023-12-20T05:23:24;98023.91;;;4.52;100.00
42601;BME280;28229;48.856;9.088;2023-12-20T05:25:50;98033.50;;;4.51;100.00
42601;BME280;28229;48.856;9.088;2023-12-20T05:28:16;98032.78;;;4.57;100.00
42601;BME280;28229;48.856;9.088;2023-12-20T05:30:43;98030.19;;;4.57;100.00
42601;BME280;28229;48.856;9.088;2023-12-20T05:33:09;98039.47;;;4.60;100.00
42601;BME280;28229;48.856;9.088;2023-12-20T05:35:35;98052.03;;;4.56;100.00
42601;BME280;28229;48.856;9.088;2023-12-20T05:38:01;98044.47;;;4.62;100.00
42601;BME280;28229;48.856;9.088;2023-12-20T05:40:27;98052.50;;;4.60;100.00
42601;BME280;28229;48.856;9.088;2023-12-20T05:42:54;98053.59;;;4.66;100.00
42601;BME280;28229;48.856;9.088;2023-12-20T05:45:20;98058.44;;;4.69;100.00
42601;BME280;28229;48.856;9.088;2023-12-20T05:47:46;98058.16;;;4.64;100.00
42601;BME280;28229;48.856;9.088;2023-12-20T05:50:15;98057.34;;;4.63;100.00
42601;BME280;28229;48.856;9.088;2023-12-20T05:52:41;98074.50;;;4.57;100.00
42601;BME280;28229;48.856;9.088;2023-12-20T05:55:07;98062.72;;;4.62;100.00
42601;BME280;28229;48.856;9.088;2023-12-20T05:57:33;98070.63;;;4.53;100.00
42601;BME280;28229;48.856;9.088;2023-12-20T05:59:59;98080.69;;;4.56;100.00
42601;BME280;28229;48.856;9.088;2023-12-20T06:02:25;98082.66;;;4.54;100.00
42601;BME280;28229;48.856;9.088;2023-12-20T06:04:51;98080.88;;;4.55;100.00
42601;BME280;28229;48.856;9.088;2023-12-20T06:07:18;98079.34;;;4.61;100.00
42601;BME280;28229;48.856;9.088;2023-12-20T06:09:44;98084.91;;;4.57;100.00
42601;BME280;28229;48.856;9.088;2023-12-20T06:12:10;98090.91;;;4.58;100.00
42601;BME280;28229;48.856;9.088;2023-12-20T06:14:36;98091.38;;;4.62;100.00
42601;BME280;28229;48.856;9.088;2023-12-20T06:17:03;98091.03;;;4.65;100.00
42601;BME280;28229;48.856;9.088;2023-12-20T06:19:29;98091.03;;;4.65;100.00
42601;BME280;28229;48.856;9.088;2023-12-20T06:21:55;98095.00;;;4.61;100.00
42601;BME280;28229;48.856;9.088;2023-12-20T06:24:21;98093.66;;;4.65;100.00
42601;BME280;28229;48.856;9.088;2023-12-20T06:26:47;98097.16;;;4.72;100.00
42601;BME280;28229;48.856;9.088;2023-12-20T06:29:13;98090.06;;;4.66;100.00
42601;BME280;28229;48.856;9.088;2023-12-20T06:31:40;98096.09;;;4.66;100.00
42601;BME280;28229;48.856;9.088;2023-12-20T06:34:06;98095.56;;;4.71;100.00
42601;BME280;28229;48.856;9.088;2023-12-20T06:36:32;98094.09;;;4.68;100.00
42601;BME280;28229;48.856;9.088;2023-12-20T06:38:58;98096.25;;;4.65;100.00
42601;BME280;28229;48.856;9.088;2023-12-20T06:41:24;98099.16;;;4.70;100.00
42601;BME280;28229;48.856;9.088;2023-12-20T06:43:50;98102.38;;;4.72;100.00
42601;BME280;28229;48.856;9.088;2023-12-20T06:46:17;98100.78;;;4.71;100.00
42601;BME280;28229;48.856;9.088;2023-12-20T06:48:46;98111.22;;;4.71;100.00
42601;BME280;28229;48.856;9.088;2023-12-20T06:51:14;98114.44;;;4.73;100.00
42601;BME280;28229;48.856;9.088;2023-12-20T06:53:41;98108.31;;;4.66;100.00
42601;BME280;28229;48.856;9.088;2023-12-20T06:56:07;98111.50;;;4.76;100.00
42601;BME280;28229;48.856;9.088;2023-12-20T06:58:38;98113.44;;;4.74;100.00
42601;BME280;28229;48.856;9.088;2023-12-20T07:01:04;98119.78;;;4.80;100.00
42601;BME280;28229;48.856;9.088;2023-12-20T07:03:30;98127.81;;;4.70;100.00
42601;BME280;28229;48.856;9.088;2023-12-20T07:05:57;98122.44;;;4.71;100.00
42601;BME280;28229;48.856;9.088;2023-12-20T07:08:23;98121.63;;;4.71;100.00
42601;BME280;28229;48.856;9.088;2023-12-20T07:10:49;98134.03;;;4.69;100.00
42601;BME280;28229;48.856;9.088;2023-12-20T07:13:15;98134.84;;;4.69;100.00
42601;BME280;28229;48.856;9.088;2023-12-20T07:15:41;98146.75;;;4.64;100.00
42601;BME280;28229;48.856;9.088;2023-12-20T07:18:08;98142.88;;;4.60;100.00
42601;BME280;28229;48.856;9.088;2023-12-20T07:20:34;98154.59;;;4.64;100.00
42601;BME280;28229;48.856;9.088;2023-12-20T07:23:00;98163.72;;;4.60;100.00
42601;BME280;28229;48.856;9.088;2023-12-20T07:25:26;98169.22;;;4.65;100.00
42601;BME280;28229;48.856;9.088;2023-12-20T07:27:52;98162.75;;;4.61;100.00
42601;BME280;28229;48.856;9.088;2023-12-20T07:30:18;98164.25;;;4.55;100.00
42601;BME280;28229;48.856;9.088;2023-12-20T07:32:44;98161.34;;;4.50;100.00
42601;BME280;28229;48.856;9.088;2023-12-20T07:35:11;98173.91;;;4.46;100.00
42601;BME280;28229;48.856;9.088;2023-12-20T07:37:37;98168.81;;;4.53;100.00
42601;BME280;28229;48.856;9.088;2023-12-20T07:40:03;98169.00;;;4.51;100.00
42601;BME280;28229;48.856;9.088;2023-12-20T07:42:29;98170.50;;;4.69;100.00
42601;BME280;28229;48.856;9.088;2023-12-20T07:44:55;98169.47;;;4.78;100.00
42601;BME280;28229;48.856;9.088;2023-12-20T07:47:22;98163.41;;;4.77;100.00
42601;BME280;28229;48.856;9.088;2023-12-20T07:49:51;98155.56;;;4.63;100.00
42601;BME280;28229;48.856;9.088;2023-12-20T07:52:20;98163.25;;;4.56;100.00
42601;BME280;28229;48.856;9.088;2023-12-20T07:54:48;98165.22;;;4.54;100.00
42601;BME280;28229;48.856;9.088;2023-12-20T07:57:14;98171.59;;;4.51;100.00
42601;BME280;28229;48.856;9.088;2023-12-20T07:59:40;98182.53;;;4.47;100.00
42601;BME280;28229;48.856;9.088;2023-12-20T08:02:06;98185.72;;;4.26;100.00
42601;BME280;28229;48.856;9.088;2023-12-20T08:04:33;98191.28;;;4.23;100.00
42601;BME280;28229;48.856;9.088;2023-12-20T08:06:59;98187.34;;;4.27;100.00
42601;BME280;28229;48.856;9.088;2023-12-20T08:09:26;98194.38;;;4.26;100.00
42601;BME280;28229;48.856;9.088;2023-12-20T08:11:52;98197.16;;;4.16;100.00
42601;BME280;28229;48.856;9.088;2023-12-20T08:14:18;98200.88;;;4.22;100.00
42601;BME280;28229;48.856;9.088;2023-12-20T08:16:44;98195.84;;;4.20;100.00
42601;BME280;28229;48.856;9.088;2023-12-20T08:19:10;98210.16;;;4.25;100.00
42601;BME280;28229;48.856;9.088;2023-12-20T08:21:36;98208.84;;;4.20;100.00
42601;BME280;28229;48.856;9.088;2023-12-20T08:24:03;98220.75;;;4.15;100.00
42601;BME280;28229;48.856;9.088;2023-12-20T08:26:29;98221.59;;;4.15;100.00
42601;BME280;28229;48.856;9.088;2023-12-20T08:28:55;98221.94;;;4.12;100.00
42601;BME280;28229;48.856;9.088;2023-12-20T08:31:22;98218.38;;;4.05;100.00
42601;BME280;28229;48.856;9.088;2023-12-20T08:33:48;98208.28;;;4.10;100.00
42601;BME280;28229;48.856;9.088;2023-12-20T08:36:15;98216.38;;;4.15;100.00
42601;BME280;28229;48.856;9.088;2023-12-20T08:38:41;98220.28;;;4.11;100.00
42601;BME280;28229;48.856;9.088;2023-12-20T08:41:07;98224.47;;;4.20;100.00
42601;BME280;28229;48.856;9.088;2023-12-20T08:43:34;98227.75;;;4.23;100.00
42601;BME280;28229;48.856;9.088;2023-12-20T08:46:03;98226.41;;;4.27;100.00
42601;BME280;28229;48.856;9.088;2023-12-20T08:48:29;98224.28;;;4.30;100.00
42601;BME280;28229;48.856;9.088;2023-12-20T08:50:56;98229.97;;;4.34;100.00
42601;BME280;28229;48.856;9.088;2023-12-20T08:53:22;98229.97;;;4.34;100.00
42601;BME280;28229;48.856;9.088;2023-12-20T08:55:48;98234.50;;;4.40;100.00
42601;BME280;28229;48.856;9.088;2023-12-20T08:58:14;98236.94;;;4.42;100.00
42601;BME280;28229;48.856;9.088;2023-12-20T09:00:40;98241.31;;;4.49;100.00
42601;BME280;28229;48.856;9.088;2023-12-20T09:03:07;98226.63;;;4.56;100.00
42601;BME280;28229;48.856;9.088;2023-12-20T09:05:33;98225.28;;;4.61;100.00
42601;BME280;28229;48.856;9.088;2023-12-20T09:07:59;98227.84;;;4.69;100.00
42601;BME280;28229;48.856;9.088;2023-12-20T09:10:26;98224.06;;;4.71;100.00
42601;BME280;28229;48.856;9.088;2023-12-20T09:12:53;98220.56;;;4.87;100.00
42601;BME280;28229;48.856;9.088;2023-12-20T09:15:24;98219.84;;;4.93;100.00
42601;BME280;28229;48.856;9.088;2023-12-20T09:17:51;98230.53;;;5.07;99.49
42601;BME280;28229;48.856;9.088;2023-12-20T09:20:17;98226.56;;;5.11;98.42
42601;BME280;28229;48.856;9.088;2023-12-20T09:22:43;98222.28;;;5.18;96.10
42601;BME280;28229;48.856;9.088;2023-12-20T09:25:10;98226.91;;;5.31;95.40
42601;BME280;28229;48.856;9.088;2023-12-20T09:27:40;98221.97;;;5.36;94.60
42601;BME280;28229;48.856;9.088;2023-12-20T09:30:07;98234.41;;;5.49;94.47
42601;BME280;28229;48.856;9.088;2023-12-20T09:32:33;98235.69;;;5.53;89.03
42601;BME280;28229;48.856;9.088;2023-12-20T09:35:00;98234.00;;;5.60;89.18
42601;BME280;28229;48.856;9.088;2023-12-20T09:37:26;98233.91;;;5.68;87.00
42601;BME280;28229;48.856;9.088;2023-12-20T09:39:54;98244.44;;;5.75;86.07
42601;BME280;28229;48.856;9.088;2023-12-20T09:42:56;98240.94;;;5.83;84.85
42601;BME280;28229;48.856;9.088;2023-12-20T09:45:23;98240.34;;;5.96;84.30
42601;BME280;28229;48.856;9.088;2023-12-20T09:47:52;98242.69;;;6.05;83.36
42601;BME280;28229;48.856;9.088;2023-12-20T09:50:20;98253.75;;;6.07;81.49
42601;BME280;28229;48.856;9.088;2023-12-20T09:52:51;98265.50;;;6.12;80.88
42601;BME280;28229;48.856;9.088;2023-12-20T09:55:18;98259.72;;;6.01;82.02
42601;BME280;28229;48.856;9.088;2023-12-20T09:57:49;98251.25;;;5.99;80.83
42601;BME280;28229;48.856;9.088;2023-12-20T10:00:15;98250.66;;;5.89;80.64
42601;BME280;28229;48.856;9.088;2023-12-20T10:02:50;98250.84;;;5.87;81.64
42601;BME280;28229;48.856;9.088;2023-12-20T10:05:27;98253.81;;;5.69;81.52
42601;BME280;28229;48.856;9.088;2023-12-20T10:07:53;98253.31;;;5.51;82.49
42601;BME280;28229;48.856;9.088;2023-12-20T10:10:19;98266.47;;;5.34;82.59
42601;BME280;28229;48.856;9.088;2023-12-20T10:13:21;98264.31;;;5.23;83.04
42601;BME280;28229;48.856;9.088;2023-12-20T10:15:49;98265.06;;;5.09;84.83
42601;BME280;28229;48.856;9.088;2023-12-20T10:18:16;98259.72;;;5.02;85.77
42601;BME280;28229;48.856;9.088;2023-12-20T10:20:42;98256.81;;;4.97;84.97
42601;BME280;28229;48.856;9.088;2023-12-20T10:23:08;98258.91;;;5.02;86.14
42601;BME280;28229;48.856;9.088;2023-12-20T10:25:35;98247.69;;;5.01;86.14
42601;BME280;28229;48.856;9.088;2023-12-20T10:28:15;98248.47;;;5.02;86.48
42601;BME280;28229;48.856;9.088;2023-12-20T10:30:45;98245.91;;;4.93;88.22
42601;BME280;28229;48.856;9.088;2023-12-20T10:33:12;98243.97;;;4.95;87.96
42601;BME280;28229;48.856;9.088;2023-12-20T10:35:39;98235.75;;;5.07;86.53
42601;BME280;28229;48.856;9.088;2023-12-20T10:38:06;98232.59;;;5.11;86.50
42601;BME280;28229;48.856;9.088;2023-12-20T10:40:36;98234.69;;;5.16;86.50
42601;BME280;28229;48.856;9.088;2023-12-20T10:43:03;98230.16;;;5.33;87.16
42601;BME280;28229;48.856;9.088;2023-12-20T10:45:30;98234.31;;;5.42;84.58
42601;BME280;28229;48.856;9.088;2023-12-20T10:47:57;98224.69;;;5.43;83.66
42601;BME280;28229;48.856;9.088;2023-12-20T10:50:27;98230.81;;;5.50;81.42
42601;BME280;28229;48.856;9.088;2023-12-20T10:52:54;98218.34;;;5.60;80.70
42601;BME280;28229;48.856;9.088;2023-12-20T10:55:25;98223.81;;;5.95;79.01
42601;BME280;28229;48.856;9.088;2023-12-20T10:57:52;98223.94;;;6.17;76.65
42601;BME280;28229;48.856;9.088;2023-12-20T11:00:18;98219.81;;;6.22;74.40
42601;BME280;28229;48.856;9.088;2023-12-20T11:02:49;98222.69;;;6.27;76.76
42601;BME280;28229;48.856;9.088;2023-12-20T11:08:12;98223.69;;;6.12;77.13
42601;BME280;28229;48.856;9.088;2023-12-20T11:10:49;98224.41;;;6.05;77.63
42601;BME280;28229;48.856;9.088;2023-12-20T11:13:22;98220.97;;;5.90;77.19
42601;BME280;28229;48.856;9.088;2023-12-20T11:15:49;98215.81;;;5.82;78.63
42601;BME280;28229;48.856;9.088;2023-12-20T11:18:16;98215.44;;;5.70;78.62
42601;BME280;28229;48.856;9.088;2023-12-20T11:20:42;98211.41;;;5.67;79.12
42601;BME280;28229;48.856;9.088;2023-12-20T11:23:09;98216.00;;;5.65;79.80
42601;BME280;28229;48.856;9.088;2023-12-20T11:25:55;98207.31;;;5.50;79.80
42601;BME280;28229;48.856;9.088;2023-12-20T11:28:23;98203.63;;;5.44;80.25
42601;BME280;28229;48.856;9.088;2023-12-20T11:30:54;98203.81;;;5.43;81.25
42601;BME280;28229;48.856;9.088;2023-12-20T11:33:25;98215.47;;;5.32;81.82
42601;BME280;28229;48.856;9.088;2023-12-20T11:35:52;98211.06;;;5.32;81.97
42601;BME280;28229;48.856;9.088;2023-12-20T11:38:21;98207.81;;;5.30;82.11
42601;BME280;28229;48.856;9.088;2023-12-20T11:40:53;98197.06;;;5.33;80.95
42601;BME280;28229;48.856;9.088;2023-12-20T11:43:36;98206.75;;;5.25;80.84
42601;BME280;28229;48.856;9.088;2023-12-20T11:46:07;98215.47;;;5.17;80.55
42601;BME280;28229;48.856;9.088;2023-12-20T11:48:35;98215.47;;;5.17;78.52
42601;BME280;28229;48.856;9.088;2023-12-20T11:51:01;98206.97;;;5.15;79.49
42601;BME280;28229;48.856;9.088;2023-12-20T11:53:29;98197.09;;;5.10;78.33
42601;BME280;28229;48.856;9.088;2023-12-20T11:55:57;98187.75;;;5.16;78.73
42601;BME280;28229;48.856;9.088;2023-12-20T11:58:25;98189.38;;;5.17;78.83
42601;BME280;28229;48.856;9.088;2023-12-20T12:00:51;98178.03;;;5.10;78.51
42601;BME280;28229;48.856;9.088;2023-12-20T12:03:17;98181.91;;;5.14;78.25
42601;BME280;28229;48.856;9.088;2023-12-20T12:05:47;98174.63;;;5.24;77.88
42601;BME280;28229;48.856;9.088;2023-12-20T12:08:13;98174.25;;;5.27;79.34
42601;BME280;28229;48.856;9.088;2023-12-20T12:10:39;98175.63;;;5.38;79.59
42601;BME280;28229;48.856;9.088;2023-12-20T12:13:05;98175.16;;;5.34;78.07
42601;BME280;28229;48.856;9.088;2023-12-20T12:15:32;98173.22;;;5.37;77.64
42601;BME280;28229;48.856;9.088;2023-12-20T12:17:58;98166.31;;;5.44;77.69
42601;BME280;28229;48.856;9.088;2023-12-20T12:20:25;98168.81;;;5.52;77.69
42601;BME280;28229;48.856;9.088;2023-12-20T12:22:58;98161.88;;;5.59;78.13
42601;BME280;28229;48.856;9.088;2023-12-20T12:25:25;98156.31;;;5.62;77.23
42601;BME280;28229;48.856;9.088;2023-12-20T12:27:51;98150.56;;;5.82;76.31
42601;BME280;28229;48.856;9.088;2023-12-20T12:30:17;98156.13;;;6.08;73.82
42601;BME280;28229;48.856;9.088;2023-12-20T12:32:44;98153.66;;;6.37;73.43
42601;BME280;28229;48.856;9.088;2023-12-20T12:35:11;98159.06;;;6.57;72.18
42601;BME280;28229;48.856;9.088;2023-12-20T12:37:38;98159.44;;;6.54;72.10
42601;BME280;28229;48.856;9.088;2023-12-20T12:40:07;98155.69;;;6.41;71.87
42601;BME280;28229;48.856;9.088;2023-12-20T12:42:36;98158.44;;;6.33;71.95
42601;BME280;28229;48.856;9.088;2023-12-20T12:45:03;98153.31;;;6.25;73.81
42601;BME280;28229;48.856;9.088;2023-12-20T12:47:30;98155.41;;;6.15;74.69
42601;BME280;28229;48.856;9.088;2023-12-20T12:49:57;98151.00;;;6.15;74.80
42601;BME280;28229;48.856;9.088;2023-12-20T12:52:23;98151.19;;;6.14;74.85
42601;BME280;28229;48.856;9.088;2023-12-20T12:54:49;98162.91;;;6.03;75.32
42601;BME280;28229;48.856;9.088;2023-12-20T12:57:15;98158.31;;;5.90;75.12
42601;BME280;28229;48.856;9.088;2023-12-20T12:59:45;98153.34;;;5.80;75.91
42601;BME280;28229;48.856;9.088;2023-12-20T13:02:14;98147.94;;;5.82;75.53
42601;BME280;28229;48.856;9.088;2023-12-20T13:04:41;98153.31;;;5.95;72.92